sensor_id;sensor_type;location;lat;lon;timestamp;temperature;humidity
28767;DHT22;15921;52.034;20.650;2024-02-16T00:00:27;7.40;99.90
28767;DHT22;15921;52.034;20.650;2024-02-16T00:02:52;7.40;99.90
28767;DHT22;15921;52.034;20.650;2024-02-16T00:05:18;7.40;99.90
28767;DHT22;15921;52.034;20.650;2024-02-16T00:07:44;7.40;99.90
28767;DHT22;15921;52.034;20.650;2024-02-16T00:10:10;7.40;99.90
28767;DHT22;15921;52.034;20.650;2024-02-16T00:12:37;7.30;99.90
28767;DHT22;15921;52.034;20.650;2024-02-16T00:15:06;7.40;99.90
28767;DHT22;15921;52.034;20.650;2024-02-16T00:17:32;7.40;99.90
28767;DHT22;15921;52.034;20.650;2024-02-16T00:19:59;7.40;99.90
28767;DHT22;15921;52.034;20.650;2024-02-16T00:22:25;7.50;99.90
28767;DHT22;15921;52.034;20.650;2024-02-16T00:24:51;7.50;99.90
28767;DHT22;15921;52.034;20.650;2024-02-16T00:27:17;7.60;99.90
28767;DHT22;15921;52.034;20.650;2024-02-16T00:29:43;7.60;99.90
28767;DHT22;15921;52.034;20.650;2024-02-16T00:32:09;7.70;99.90
28767;DHT22;15921;52.034;20.650;2024-02-16T00:34:35;7.80;99.90
28767;DHT22;15921;52.034;20.650;2024-02-16T00:37:01;7.80;99.90
28767;DHT22;15921;52.034;20.650;2024-02-16T00:39:27;7.90;99.90
28767;DHT22;15921;52.034;20.650;2024-02-16T00:41:53;7.90;99.90
28767;DHT22;15921;52.034;20.650;2024-02-16T00:44:19;8.00;99.90
28767;DHT22;15921;52.034;20.650;2024-02-16T00:46:45;8.00;99.90
28767;DHT22;15921;52.034;20.650;2024-02-16T00:49:10;8.00;99.90
28767;DHT22;15921;52.034;20.650;2024-02-16T00:51:37;8.00;99.90
28767;DHT22;15921;52.034;20.650;2024-02-16T00:54:03;8.00;99.90
28767;DHT22;15921;52.034;20.650;2024-02-16T00:56:30;8.00;99.90
28767;DHT22;15921;52.034;20.650;2024-02-16T00:58:56;8.00;99.90
28767;DHT22;15921;52.034;20.650;2024-02-16T01:01:21;8.00;99.90
28767;DHT22;15921;52.034;20.650;2024-02-16T01:03:48;7.90;99.90
28767;DHT22;15921;52.034;20.650;2024-02-16T01:06:15;7.80;99.90
28767;DHT22;15921;52.034;20.650;2024-02-16T01:08:41;7.80;99.90
28767;DHT22;15921;52.034;20.650;2024-02-16T01:11:06;7.60;99.90
28767;DHT22;15921;52.034;20.650;2024-02-16T01:13:33;7.50;99.90
28767;DHT22;15921;52.034;20.650;2024-02-16T01:15:59;7.40;99.90
28767;DHT22;15921;52.034;20.650;2024-02-16T01:18:28;7.30;99.90
28767;DHT22;15921;52.034;20.650;2024-02-16T01:20:55;7.20;99.90
28767;DHT22;15921;52.034;20.650;2024-02-16T01:23:21;7.10;99.90
28767;DHT22;15921;52.034;20.650;2024-02-16T01:25:47;7.10;99.90
28767;DHT22;15921;52.034;20.650;2024-02-16T01:28:13;7.00;99.90
28767;DHT22;15921;52.034;20.650;2024-02-16T01:30:39;6.90;99.90
28767;DHT22;15921;52.034;20.650;2024-02-16T01:33:06;6.80;99.90
28767;DHT22;15921;52.034;20.650;2024-02-16T01:35:35;6.80;99.90
28767;DHT22;15921;52.034;20.650;2024-02-16T01:38:01;6.70;99.90
28767;DHT22;15921;52.034;20.650;2024-02-16T01:40:28;6.60;99.90
28767;DHT22;15921;52.034;20.650;2024-02-16T01:42:54;6.60;99.90
28767;DHT22;15921;52.034;20.650;2024-02-16T01:45:20;6.60;99.90
28767;DHT22;15921;52.034;20.650;2024-02-16T01:47:50;6.50;99.90
28767;DHT22;15921;52.034;20.650;2024-02-16T01:50:17;6.40;99.90
28767;DHT22;15921;52.034;20.650;2024-02-16T01:52:48;6.40;99.90
28767;DHT22;15921;52.034;20.650;2024-02-16T01:55:15;6.30;99.90
28767;DHT22;15921;52.034;20.650;2024-02-16T01:57:46;6.30;99.90
28767;DHT22;15921;52.034;20.650;2024-02-16T02:00:13;6.30;99.90
28767;DHT22;15921;52.034;20.650;2024-02-16T02:02:41;6.20;99.90
28767;DHT22;15921;52.034;20.650;2024-02-16T02:05:09;6.20;99.90
28767;DHT22;15921;52.034;20.650;2024-02-16T02:07:34;6.20;99.90
28767;DHT22;15921;52.034;20.650;2024-02-16T02:10:00;6.10;99.90
28767;DHT22;15921;52.034;20.650;2024-02-16T02:12:26;6.10;99.90
28767;DHT22;15921;52.034;20.650;2024-02-16T02:14:52;6.10;99.90
28767;DHT22;15921;52.034;20.650;2024-02-16T02:17:18;6.00;99.90
28767;DHT22;15921;52.034;20.650;2024-02-16T02:19:48;6.00;99.90
28767;DHT22;15921;52.034;20.650;2024-02-16T02:22:20;5.90;99.90
28767;DHT22;15921;52.034;20.650;2024-02-16T02:24:47;5.90;99.90
28767;DHT22;15921;52.034;20.650;2024-02-16T02:27:13;5.90;99.90
28767;DHT22;15921;52.034;20.650;2024-02-16T02:29:39;5.90;99.90
28767;DHT22;15921;52.034;20.650;2024-02-16T02:32:06;5.80;99.90
28767;DHT22;15921;52.034;20.650;2024-02-16T02:34:32;5.80;99.90
28767;DHT22;15921;52.034;20.650;2024-02-16T02:36:58;5.80;99.90
28767;DHT22;15921;52.034;20.650;2024-02-16T02:39:24;5.80;99.90
28767;DHT22;15921;52.034;20.650;2024-02-16T02:41:50;5.80;99.90
28767;DHT22;15921;52.034;20.650;2024-02-16T02:44:15;5.70;99.90
28767;DHT22;15921;52.034;20.650;2024-02-16T02:46:41;5.70;99.90
28767;DHT22;15921;52.034;20.650;2024-02-16T02:49:07;5.70;99.90
28767;DHT22;15921;52.034;20.650;2024-02-16T02:51:33;5.70;99.90
28767;DHT22;15921;52.034;20.650;2024-02-16T02:53:59;5.70;99.90
28767;DHT22;15921;52.034;20.650;2024-02-16T02:56:25;5.60;99.90
28767;DHT22;15921;52.034;20.650;2024-02-16T02:58:51;5.60;99.90
28767;DHT22;15921;52.034;20.650;2024-02-16T03:01:16;5.50;99.90
28767;DHT22;15921;52.034;20.650;2024-02-16T03:03:45;5.50;99.90
28767;DHT22;15921;52.034;20.650;2024-02-16T03:06:10;5.50;99.90
28767;DHT22;15921;52.034;20.650;2024-02-16T03:08:36;5.40;99.90
28767;DHT22;15921;52.034;20.650;2024-02-16T03:11:02;5.40;99.90
28767;DHT22;15921;52.034;20.650;2024-02-16T03:13:29;5.40;99.90
28767;DHT22;15921;52.034;20.650;2024-02-16T03:15:55;5.40;99.90
28767;DHT22;15921;52.034;20.650;2024-02-16T03:18:21;5.40;99.90
28767;DHT22;15921;52.034;20.650;2024-02-16T03:20:47;5.40;99.90
28767;DHT22;15921;52.034;20.650;2024-02-16T03:23:15;5.40;99.90
28767;DHT22;15921;52.034;20.650;2024-02-16T03:25:41;5.30;99.90
28767;DHT22;15921;52.034;20.650;2024-02-16T03:28:12;5.30;99.90
28767;DHT22;15921;52.034;20.650;2024-02-16T03:30:38;5.20;99.90
28767;DHT22;15921;52.034;20.650;2024-02-16T03:33:04;5.20;99.90
28767;DHT22;15921;52.034;20.650;2024-02-16T03:35:30;5.30;99.90
28767;DHT22;15921;52.034;20.650;2024-02-16T03:37:55;5.20;99.90
28767;DHT22;15921;52.034;20.650;2024-02-16T03:40:23;5.20;99.90
28767;DHT22;15921;52.034;20.650;2024-02-16T03:42:50;5.20;99.90
28767;DHT22;15921;52.034;20.650;2024-02-16T03:45:16;5.20;99.90
28767;DHT22;15921;52.034;20.650;2024-02-16T03:47:42;5.10;99.90
28767;DHT22;15921;52.034;20.650;2024-02-16T03:50:08;5.10;99.90
28767;DHT22;15921;52.034;20.650;2024-02-16T03:52:34;5.10;99.90
28767;DHT22;15921;52.034;20.650;2024-02-16T03:54:59;5.00;99.90
28767;DHT22;15921;52.034;20.650;2024-02-16T03:57:25;5.00;99.90
28767;DHT22;15921;52.034;20.650;2024-02-16T03:59:52;5.00;99.90
28767;DHT22;15921;52.034;20.650;2024-02-16T04:02:17;5.00;99.90
28767;DHT22;15921;52.034;20.650;2024-02-16T04:04:44;5.00;99.90
28767;DHT22;15921;52.034;20.650;2024-02-16T04:07:10;4.90;99.90
28767;DHT22;15921;52.034;20.650;2024-02-16T04:09:35;4.90;99.90
28767;DHT22;15921;52.034;20.650;2024-02-16T04:12:02;4.90;99.90
28767;DHT22;15921;52.034;20.650;2024-02-16T04:14:29;4.90;99.90
28767;DHT22;15921;52.034;20.650;2024-02-16T04:16:55;4.90;99.90
28767;DHT22;15921;52.034;20.650;2024-02-16T04:19:26;4.90;99.90
28767;DHT22;15921;52.034;20.650;2024-02-16T04:21:52;4.90;99.90
28767;DHT22;15921;52.034;20.650;2024-02-16T04:24:18;4.80;99.90
28767;DHT22;15921;52.034;20.650;2024-02-16T04:26:44;4.80;99.90
28767;DHT22;15921;52.034;20.650;2024-02-16T04:29:10;4.80;99.90
28767;DHT22;15921;52.034;20.650;2024-02-16T04:31:39;4.80;99.90
28767;DHT22;15921;52.034;20.650;2024-02-16T04:34:05;4.80;99.90
28767;DHT22;15921;52.034;20.650;2024-02-16T04:36:31;4.70;99.90
28767;DHT22;15921;52.034;20.650;2024-02-16T04:38:57;4.70;99.90
28767;DHT22;15921;52.034;20.650;2024-02-16T04:41:23;4.70;99.90
28767;DHT22;15921;52.034;20.650;2024-02-16T04:43:48;4.70;99.90
28767;DHT22;15921;52.034;20.650;2024-02-16T04:46:17;4.70;99.90
28767;DHT22;15921;52.034;20.650;2024-02-16T04:48:43;4.70;99.90
28767;DHT22;15921;52.034;20.650;2024-02-16T04:51:10;4.60;99.90
28767;DHT22;15921;52.034;20.650;2024-02-16T04:53:36;4.60;99.90
28767;DHT22;15921;52.034;20.650;2024-02-16T04:56:02;4.60;99.90
28767;DHT22;15921;52.034;20.650;2024-02-16T04:58:28;4.50;99.90
28767;DHT22;15921;52.034;20.650;2024-02-16T05:00:53;4.50;99.90
28767;DHT22;15921;52.034;20.650;2024-02-16T05:03:19;4.60;99.90
28767;DHT22;15921;52.034;20.650;2024-02-16T05:05:45;4.50;99.90
28767;DHT22;15921;52.034;20.650;2024-02-16T05:08:11;4.50;99.90
28767;DHT22;15921;52.034;20.650;2024-02-16T05:10:37;4.50;99.90
28767;DHT22;15921;52.034;20.650;2024-02-16T05:13:03;4.50;99.90
28767;DHT22;15921;52.034;20.650;2024-02-16T05:15:29;4.40;99.90
28767;DHT22;15921;52.034;20.650;2024-02-16T05:17:55;4.40;99.90
28767;DHT22;15921;52.034;20.650;2024-02-16T05:20:21;4.40;99.90
28767;DHT22;15921;52.034;20.650;2024-02-16T05:22:47;4.40;99.90
28767;DHT22;15921;52.034;20.650;2024-02-16T05:25:16;4.40;99.90
28767;DHT22;15921;52.034;20.650;2024-02-16T05:27:46;4.40;99.90
28767;DHT22;15921;52.034;20.650;2024-02-16T05:30:13;4.40;99.90
28767;DHT22;15921;52.034;20.650;2024-02-16T05:32:40;4.40;99.90
28767;DHT22;15921;52.034;20.650;2024-02-16T05:35:07;4.40;99.90
28767;DHT22;15921;52.034;20.650;2024-02-16T05:37:44;4.30;99.90
28767;DHT22;15921;52.034;20.650;2024-02-16T05:40:13;4.30;99.90
28767;DHT22;15921;52.034;20.650;2024-02-16T05:42:48;4.30;99.90
28767;DHT22;15921;52.034;20.650;2024-02-16T05:45:15;4.30;99.90
28767;DHT22;15921;52.034;20.650;2024-02-16T05:47:45;4.30;99.90
28767;DHT22;15921;52.034;20.650;2024-02-16T05:50:12;4.30;99.90
28767;DHT22;15921;52.034;20.650;2024-02-16T05:52:38;4.30;99.90
28767;DHT22;15921;52.034;20.650;2024-02-16T05:55:06;4.30;99.90
28767;DHT22;15921;52.034;20.650;2024-02-16T05:57:32;4.30;99.90
28767;DHT22;15921;52.034;20.650;2024-02-16T05:59:57;4.30;99.90
28767;DHT22;15921;52.034;20.650;2024-02-16T06:02:23;4.30;99.90
28767;DHT22;15921;52.034;20.650;2024-02-16T06:04:55;4.30;99.90
28767;DHT22;15921;52.034;20.650;2024-02-16T06:07:21;4.30;99.90
28767;DHT22;15921;52.034;20.650;2024-02-16T06:09:47;4.30;99.90
28767;DHT22;15921;52.034;20.650;2024-02-16T06:12:13;4.30;99.90
28767;DHT22;15921;52.034;20.650;2024-02-16T06:14:39;4.30;99.90
28767;DHT22;15921;52.034;20.650;2024-02-16T06:17:04;4.30;99.90
28767;DHT22;15921;52.034;20.650;2024-02-16T06:19:30;4.30;99.90
28767;DHT22;15921;52.034;20.650;2024-02-16T06:21:56;4.40;99.90
28767;DHT22;15921;52.034;20.650;2024-02-16T06:24:22;4.40;99.90
28767;DHT22;15921;52.034;20.650;2024-02-16T06:26:49;4.40;99.90
28767;DHT22;15921;52.034;20.650;2024-02-16T06:29:15;4.50;99.90
28767;DHT22;15921;52.034;20.650;2024-02-16T06:31:41;4.50;99.90
28767;DHT22;15921;52.034;20.650;2024-02-16T06:34:06;4.50;99.90
28767;DHT22;15921;52.034;20.650;2024-02-16T06:36:33;4.50;99.90
28767;DHT22;15921;52.034;20.650;2024-02-16T06:38:59;4.60;99.90
28767;DHT22;15921;52.034;20.650;2024-02-16T06:41:25;4.60;99.90
28767;DHT22;15921;52.034;20.650;2024-02-16T06:43:51;4.70;99.90
28767;DHT22;15921;52.034;20.650;2024-02-16T06:46:17;4.70;99.90
28767;DHT22;15921;52.034;20.650;2024-02-16T06:48:43;4.80;99.90
28767;DHT22;15921;52.034;20.650;2024-02-16T06:51:11;4.90;99.90
28767;DHT22;15921;52.034;20.650;2024-02-16T06:53:36;4.90;99.90
28767;DHT22;15921;52.034;20.650;2024-02-16T06:56:02;5.00;99.90
28767;DHT22;15921;52.034;20.650;2024-02-16T06:58:28;5.10;99.90
28767;DHT22;15921;52.034;20.650;2024-02-16T07:00:54;5.20;99.90
28767;DHT22;15921;52.034;20.650;2024-02-16T07:03:20;5.30;99.90
28767;DHT22;15921;52.034;20.650;2024-02-16T07:05:46;5.40;99.90
28767;DHT22;15921;52.034;20.650;2024-02-16T07:08:12;5.50;99.90
28767;DHT22;15921;52.034;20.650;2024-02-16T07:10:37;5.60;99.90
28767;DHT22;15921;52.034;20.650;2024-02-16T07:13:03;5.70;99.90
28767;DHT22;15921;52.034;20.650;2024-02-16T07:15:29;5.70;99.90
28767;DHT22;15921;52.034;20.650;2024-02-16T07:17:55;5.90;99.90
28767;DHT22;15921;52.034;20.650;2024-02-16T07:20:21;6.00;99.90
28767;DHT22;15921;52.034;20.650;2024-02-16T07:22:47;6.10;99.90
28767;DHT22;15921;52.034;20.650;2024-02-16T07:25:13;6.20;99.90
28767;DHT22;15921;52.034;20.650;2024-02-16T07:27:39;6.30;99.90
28767;DHT22;15921;52.034;20.650;2024-02-16T07:30:05;6.40;99.90
28767;DHT22;15921;52.034;20.650;2024-02-16T07:32:31;6.50;99.90
28767;DHT22;15921;52.034;20.650;2024-02-16T07:34:56;6.60;99.90
28767;DHT22;15921;52.034;20.650;2024-02-16T07:37:22;6.80;99.90
28767;DHT22;15921;52.034;20.650;2024-02-16T07:39:48;6.80;99.90
28767;DHT22;15921;52.034;20.650;2024-02-16T07:42:13;6.90;99.90
28767;DHT22;15921;52.034;20.650;2024-02-16T07:44:39;7.00;99.90
28767;DHT22;15921;52.034;20.650;2024-02-16T07:47:05;7.10;99.90
28767;DHT22;15921;52.034;20.650;2024-02-16T07:49:31;7.20;99.90
28767;DHT22;15921;52.034;20.650;2024-02-16T07:51:57;7.30;99.90
28767;DHT22;15921;52.034;20.650;2024-02-16T07:54:25;7.40;99.90
28767;DHT22;15921;52.034;20.650;2024-02-16T07:56:51;7.50;99.90
28767;DHT22;15921;52.034;20.650;2024-02-16T07:59:16;7.60;99.90
28767;DHT22;15921;52.034;20.650;2024-02-16T08:01:44;7.60;99.90
28767;DHT22;15921;52.034;20.650;2024-02-16T08:04:10;7.70;99.90
28767;DHT22;15921;52.034;20.650;2024-02-16T08:06:36;7.80;99.90
28767;DHT22;15921;52.034;20.650;2024-02-16T08:09:03;7.90;99.90
28767;DHT22;15921;52.034;20.650;2024-02-16T08:11:29;8.00;99.90
28767;DHT22;15921;52.034;20.650;2024-02-16T08:13:55;8.00;99.90
28767;DHT22;15921;52.034;20.650;2024-02-16T08:16:26;8.20;99.90
28767;DHT22;15921;52.034;20.650;2024-02-16T08:18:52;8.20;99.90
28767;DHT22;15921;52.034;20.650;2024-02-16T08:21:17;8.20;99.90
28767;DHT22;15921;52.034;20.650;2024-02-16T08:23:43;8.30;99.90
28767;DHT22;15921;52.034;20.650;2024-02-16T08:26:09;8.40;99.90
28767;DHT22;15921;52.034;20.650;2024-02-16T08:28:34;8.50;99.90
28767;DHT22;15921;52.034;20.650;2024-02-16T08:31:00;8.60;99.90
28767;DHT22;15921;52.034;20.650;2024-02-16T08:33:26;8.70;99.90
28767;DHT22;15921;52.034;20.650;2024-02-16T08:35:52;8.80;99.90
28767;DHT22;15921;52.034;20.650;2024-02-16T08:38:18;8.90;99.90
28767;DHT22;15921;52.034;20.650;2024-02-16T08:40:43;9.00;99.90
28767;DHT22;15921;52.034;20.650;2024-02-16T08:43:09;9.10;99.90
28767;DHT22;15921;52.034;20.650;2024-02-16T08:45:35;9.20;99.90
28767;DHT22;15921;52.034;20.650;2024-02-16T08:48:01;9.30;99.90
28767;DHT22;15921;52.034;20.650;2024-02-16T08:50:29;9.40;99.90
28767;DHT22;15921;52.034;20.650;2024-02-16T08:52:55;9.50;99.90
28767;DHT22;15921;52.034;20.650;2024-02-16T08:55:20;9.60;99.90
28767;DHT22;15921;52.034;20.650;2024-02-16T08:57:46;9.70;99.90
28767;DHT22;15921;52.034;20.650;2024-02-16T09:00:12;9.80;99.90
28767;DHT22;15921;52.034;20.650;2024-02-16T09:02:38;9.90;99.90
28767;DHT22;15921;52.034;20.650;2024-02-16T09:05:04;10.00;99.90
28767;DHT22;15921;52.034;20.650;2024-02-16T09:07:31;10.20;99.90
28767;DHT22;15921;52.034;20.650;2024-02-16T09:09:56;10.20;99.90
28767;DHT22;15921;52.034;20.650;2024-02-16T09:12:23;10.40;99.90
28767;DHT22;15921;52.034;20.650;2024-02-16T09:14:48;10.50;99.90
28767;DHT22;15921;52.034;20.650;2024-02-16T09:17:14;10.60;99.70
28767;DHT22;15921;52.034;20.650;2024-02-16T09:19:40;10.70;99.20
28767;DHT22;15921;52.034;20.650;2024-02-16T09:22:06;10.70;98.70
28767;DHT22;15921;52.034;20.650;2024-02-16T09:24:32;10.80;98.30
28767;DHT22;15921;52.034;20.650;2024-02-16T09:26:58;10.80;97.90
28767;DHT22;15921;52.034;20.650;2024-02-16T09:29:29;10.90;97.90
28767;DHT22;15921;52.034;20.650;2024-02-16T09:31:55;11.00;97.80
28767;DHT22;15921;52.034;20.650;2024-02-16T09:34:20;11.10;97.80
28767;DHT22;15921;52.034;20.650;2024-02-16T09:36:46;11.20;97.60
28767;DHT22;15921;52.034;20.650;2024-02-16T09:39:12;11.20;97.10
28767;DHT22;15921;52.034;20.650;2024-02-16T09:41:42;11.40;96.80
28767;DHT22;15921;52.034;20.650;2024-02-16T09:44:08;11.40;96.60
28767;DHT22;15921;52.034;20.650;2024-02-16T09:46:35;11.50;96.60
28767;DHT22;15921;52.034;20.650;2024-02-16T09:49:02;11.60;96.40
28767;DHT22;15921;52.034;20.650;2024-02-16T09:51:35;11.70;96.10
28767;DHT22;15921;52.034;20.650;2024-02-16T09:54:01;11.70;95.90
28767;DHT22;15921;52.034;20.650;2024-02-16T09:56:28;11.80;95.80
28767;DHT22;15921;52.034;20.650;2024-02-16T09:58:54;11.80;95.50
28767;DHT22;15921;52.034;20.650;2024-02-16T10:01:23;11.90;95.30
28767;DHT22;15921;52.034;20.650;2024-02-16T10:03:50;11.90;95.00
28767;DHT22;15921;52.034;20.650;2024-02-16T10:06:16;11.90;94.70
28767;DHT22;15921;52.034;20.650;2024-02-16T10:08:55;12.00;94.80
28767;DHT22;15921;52.034;20.650;2024-02-16T10:11:24;12.10;94.50
28767;DHT22;15921;52.034;20.650;2024-02-16T10:14:03;12.20;94.30
28767;DHT22;15921;52.034;20.650;2024-02-16T10:16:30;12.20;94.00
28767;DHT22;15921;52.034;20.650;2024-02-16T10:19:06;12.30;93.80
28767;DHT22;15921;52.034;20.650;2024-02-16T10:21:32;12.40;93.90
28767;DHT22;15921;52.034;20.650;2024-02-16T10:24:03;12.50;93.80
28767;DHT22;15921;52.034;20.650;2024-02-16T10:26:30;12.60;93.70
28767;DHT22;15921;52.034;20.650;2024-02-16T10:28:57;12.70;93.30
28767;DHT22;15921;52.034;20.650;2024-02-16T10:31:24;12.70;93.00
28767;DHT22;15921;52.034;20.650;2024-02-16T10:34:01;12.80;92.90
28767;DHT22;15921;52.034;20.650;2024-02-16T10:36:32;12.90;92.50
28767;DHT22;15921;52.034;20.650;2024-02-16T10:38:58;13.00;92.60
28767;DHT22;15921;52.034;20.650;2024-02-16T10:41:27;13.10;92.20
28767;DHT22;15921;52.034;20.650;2024-02-16T10:43:56;13.20;92.10
28767;DHT22;15921;52.034;20.650;2024-02-16T10:46:24;13.30;92.00
28767;DHT22;15921;52.034;20.650;2024-02-16T10:48:50;13.40;91.70
28767;DHT22;15921;52.034;20.650;2024-02-16T10:51:26;13.50;91.60
28767;DHT22;15921;52.034;20.650;2024-02-16T10:53:55;13.60;91.60
28767;DHT22;15921;52.034;20.650;2024-02-16T10:56:37;13.70;91.30
28767;DHT22;15921;52.034;20.650;2024-02-16T10:59:09;13.80;91.00
28767;DHT22;15921;52.034;20.650;2024-02-16T11:01:38;13.80;90.70
28767;DHT22;15921;52.034;20.650;2024-02-16T11:04:04;13.90;90.50
28767;DHT22;15921;52.034;20.650;2024-02-16T11:06:44;14.00;90.50
28767;DHT22;15921;52.034;20.650;2024-02-16T11:09:11;14.10;90.10
28767;DHT22;15921;52.034;20.650;2024-02-16T11:11:37;14.10;90.00
28767;DHT22;15921;52.034;20.650;2024-02-16T11:14:02;14.20;89.90
28767;DHT22;15921;52.034;20.650;2024-02-16T11:16:29;14.30;89.20
28767;DHT22;15921;52.034;20.650;2024-02-16T11:18:56;14.30;89.00
28767;DHT22;15921;52.034;20.650;2024-02-16T11:21:22;14.50;89.00
28767;DHT22;15921;52.034;20.650;2024-02-16T11:23:48;14.70;88.50
28767;DHT22;15921;52.034;20.650;2024-02-16T11:26:14;14.70;87.90
28767;DHT22;15921;52.034;20.650;2024-02-16T11:28:42;14.80;87.90
28767;DHT22;15921;52.034;20.650;2024-02-16T11:31:09;14.90;86.90
28767;DHT22;15921;52.034;20.650;2024-02-16T11:33:35;14.90;86.50
28767;DHT22;15921;52.034;20.650;2024-02-16T11:36:05;14.90;86.70
28767;DHT22;15921;52.034;20.650;2024-02-16T11:38:33;15.00;86.10
28767;DHT22;15921;52.034;20.650;2024-02-16T11:43:26;15.20;85.70
28767;DHT22;15921;52.034;20.650;2024-02-16T11:45:53;15.40;85.40
28767;DHT22;15921;52.034;20.650;2024-02-16T11:48:23;15.60;84.00
28767;DHT22;15921;52.034;20.650;2024-02-16T11:51:01;15.80;83.10
28767;DHT22;15921;52.034;20.650;2024-02-16T11:53:31;16.80;81.50
28767;DHT22;15921;52.034;20.650;2024-02-16T11:55:57;18.70;76.90
28767;DHT22;15921;52.034;20.650;2024-02-16T11:58:24;20.60;70.80
28767;DHT22;15921;52.034;20.650;2024-02-16T12:00:50;22.10;66.20
28767;DHT22;15921;52.034;20.650;2024-02-16T12:05:55;24.40;57.60
28767;DHT22;15921;52.034;20.650;2024-02-16T12:08:21;25.10;54.90
28767;DHT22;15921;52.034;20.650;2024-02-16T12:10:47;25.60;54.10
28767;DHT22;15921;52.034;20.650;2024-02-16T12:13:16;26.00;52.90
28767;DHT22;15921;52.034;20.650;2024-02-16T12:15:47;26.40;51.20
28767;DHT22;15921;52.034;20.650;2024-02-16T12:18:20;26.50;50.90
28767;DHT22;15921;52.034;20.650;2024-02-16T12:21:00;26.50;49.10
28767;DHT22;15921;52.034;20.650;2024-02-16T12:23:26;26.40;49.10
28767;DHT22;15921;52.034;20.650;2024-02-16T12:25:51;26.40;49.10
28767;DHT22;15921;52.034;20.650;2024-02-16T12:28:18;26.30;48.80
28767;DHT22;15921;52.034;20.650;2024-02-16T12:30:47;26.20;49.40
28767;DHT22;15921;52.034;20.650;2024-02-16T12:33:14;26.30;49.30
28767;DHT22;15921;52.034;20.650;2024-02-16T12:35:40;26.40;48.80
28767;DHT22;15921;52.034;20.650;2024-02-16T12:38:06;26.50;48.50
28767;DHT22;15921;52.034;20.650;2024-02-16T12:40:31;26.80;48.60
28767;DHT22;15921;52.034;20.650;2024-02-16T12:42:57;27.10;47.80
28767;DHT22;15921;52.034;20.650;2024-02-16T12:45:22;26.70;47.70
28767;DHT22;15921;52.034;20.650;2024-02-16T12:47:49;26.60;47.90
28767;DHT22;15921;52.034;20.650;2024-02-16T12:50:16;26.60;47.70
28767;DHT22;15921;52.034;20.650;2024-02-16T12:52:42;26.70;47.20
28767;DHT22;15921;52.034;20.650;2024-02-16T12:55:08;26.70;47.50
28767;DHT22;15921;52.034;20.650;2024-02-16T12:57:36;26.80;47.50
28767;DHT22;15921;52.034;20.650;2024-02-16T13:00:02;26.70;47.10
28767;DHT22;15921;52.034;20.650;2024-02-16T13:02:28;26.40;47.50
28767;DHT22;15921;52.034;20.650;2024-02-16T13:04:54;26.00;47.70
28767;DHT22;15921;52.034;20.650;2024-02-16T13:07:21;25.80;48.10
28767;DHT22;15921;52.034;20.650;2024-02-16T13:09:46;25.70;48.40
28767;DHT22;15921;52.034;20.650;2024-02-16T13:12:12;25.70;48.20
28767;DHT22;15921;52.034;20.650;2024-02-16T13:14:37;25.80;48.30
28767;DHT22;15921;52.034;20.650;2024-02-16T13:17:04;26.10;48.10
28767;DHT22;15921;52.034;20.650;2024-02-16T13:19:30;26.20;47.70
28767;DHT22;15921;52.034;20.650;2024-02-16T13:21:55;26.70;47.30
28767;DHT22;15921;52.034;20.650;2024-02-16T13:24:21;27.30;46.50
28767;DHT22;15921;52.034;20.650;2024-02-16T13:26:47;27.70;45.80
28767;DHT22;15921;52.034;20.650;2024-02-16T13:29:13;28.10;45.00
28767;DHT22;15921;52.034;20.650;2024-02-16T13:31:38;28.10;44.80
28767;DHT22;15921;52.034;20.650;2024-02-16T13:34:06;27.90;44.80
28767;DHT22;15921;52.034;20.650;2024-02-16T13:36:31;27.40;45.10
28767;DHT22;15921;52.034;20.650;2024-02-16T13:38:57;27.00;45.20
28767;DHT22;15921;52.034;20.650;2024-02-16T13:41:23;26.00;46.10
28767;DHT22;15921;52.034;20.650;2024-02-16T13:43:49;25.60;46.90
28767;DHT22;15921;52.034;20.650;2024-02-16T13:46:15;25.20;47.30
28767;DHT22;15921;52.034;20.650;2024-02-16T13:48:40;24.80;48.30
28767;DHT22;15921;52.034;20.650;2024-02-16T13:51:07;25.30;48.30
28767;DHT22;15921;52.034;20.650;2024-02-16T13:53:32;25.50;47.90
28767;DHT22;15921;52.034;20.650;2024-02-16T13:55:58;25.50;47.60
28767;DHT22;15921;52.034;20.650;2024-02-16T13:58:29;25.80;47.40
28767;DHT22;15921;52.034;20.650;2024-02-16T14:00:56;26.10;47.00
28767;DHT22;15921;52.034;20.650;2024-02-16T14:03:22;25.70;46.80
28767;DHT22;15921;52.034;20.650;2024-02-16T14:05:48;24.80;48.00
28767;DHT22;15921;52.034;20.650;2024-02-16T14:08:14;25.40;47.80
28767;DHT22;15921;52.034;20.650;2024-02-16T14:10:41;25.80;47.00
28767;DHT22;15921;52.034;20.650;2024-02-16T14:13:07;25.50;47.10
28767;DHT22;15921;52.034;20.650;2024-02-16T14:15:32;25.80;46.80
28767;DHT22;15921;52.034;20.650;2024-02-16T14:17:58;25.50;46.80
28767;DHT22;15921;52.034;20.650;2024-02-16T14:20:24;25.60;47.00
28767;DHT22;15921;52.034;20.650;2024-02-16T14:22:50;25.50;47.00
28767;DHT22;15921;52.034;20.650;2024-02-16T14:25:15;25.50;46.90
28767;DHT22;15921;52.034;20.650;2024-02-16T14:27:41;26.10;46.50
28767;DHT22;15921;52.034;20.650;2024-02-16T14:30:08;26.60;46.00
28767;DHT22;15921;52.034;20.650;2024-02-16T14:32:33;26.70;45.60
28767;DHT22;15921;52.034;20.650;2024-02-16T14:35:00;26.20;45.60
28767;DHT22;15921;52.034;20.650;2024-02-16T14:37:26;25.50;46.20
28767;DHT22;15921;52.034;20.650;2024-02-16T14:39:54;25.40;46.70
28767;DHT22;15921;52.034;20.650;2024-02-16T14:42:23;25.40;46.90
28767;DHT22;15921;52.034;20.650;2024-02-16T14:44:49;25.50;46.60
28767;DHT22;15921;52.034;20.650;2024-02-16T14:47:15;25.20;46.60
28767;DHT22;15921;52.034;20.650;2024-02-16T14:49:41;24.40;47.30
28767;DHT22;15921;52.034;20.650;2024-02-16T14:52:06;23.60;48.40
28767;DHT22;15921;52.034;20.650;2024-02-16T14:54:32;23.00;49.30
28767;DHT22;15921;52.034;20.650;2024-02-16T14:56:58;22.50;50.30
28767;DHT22;15921;52.034;20.650;2024-02-16T14:59:24;21.80;51.40
28767;DHT22;15921;52.034;20.650;2024-02-16T15:01:51;21.20;52.60
28767;DHT22;15921;52.034;20.650;2024-02-16T15:04:17;20.50;53.50
28767;DHT22;15921;52.034;20.650;2024-02-16T15:06:43;19.50;55.00
28767;DHT22;15921;52.034;20.650;2024-02-16T15:09:09;18.50;56.80
28767;DHT22;15921;52.034;20.650;2024-02-16T15:11:35;17.60;58.70
28767;DHT22;15921;52.034;20.650;2024-02-16T15:14:03;16.80;60.40
28767;DHT22;15921;52.034;20.650;2024-02-16T15:16:29;16.10;62.30
28767;DHT22;15921;52.034;20.650;2024-02-16T15:18:56;15.60;63.70
28767;DHT22;15921;52.034;20.650;2024-02-16T15:21:22;15.30;65.10
28767;DHT22;15921;52.034;20.650;2024-02-16T15:23:47;14.90;66.10
28767;DHT22;15921;52.034;20.650;2024-02-16T15:26:13;14.70;67.10